Time;durP1;ratioP1;P1;durP2;ratioP2;P2;SDS_P1;SDS_P2;PMS_P1;PMS_P2;Temp;Humidity;BMP_temperature;BMP_pressure;BME280_temperature;BME280_humidity;BME280_pressure;Samples;Min_cycle;Max_cycle;Signal;HPM_P1;HPM_P2
2022/01/29 00:01:05;;;;;;;33.03;19.40;;;-4.20;99.90;;;;;;5095187;28;20564;-73
2022/01/29 00:03:31;;;;;;;27.70;18.43;;;-4.20;99.90;;;;;;5095578;28;20228;-73
2022/01/29 00:05:58;;;;;;;30.00;19.00;;;-3.70;99.90;;;;;;5097612;28;20610;-76
2022/01/29 00:08:25;;;;;;;33.13;20.37;;;-4.10;99.90;;;;;;5099548;28;20255;-77
2022/01/29 00:10:56;;;;;;;28.03;18.47;;;-4.00;99.90;;;;;;5098509;28;20403;-77
2022/01/29 00:13:22;;;;;;;31.83;18.30;;;-3.60;99.90;;;;;;5099572;28;20427;-76
2022/01/29 00:15:47;;;;;;;27.50;17.97;;;-4.00;99.90;;;;;;5099329;28;20404;-73
2022/01/29 00:18:13;;;;;;;28.03;17.60;;;-4.10;99.90;;;;;;5099455;28;20891;-73
2022/01/29 00:20:39;;;;;;;32.50;16.63;;;-4.10;99.90;;;;;;5099429;28;20181;-75
2022/01/29 00:23:05;;;;;;;29.63;18.27;;;-4.10;99.90;;;;;;5099346;28;20191;-74
2022/01/29 00:25:30;;;;;;;33.80;20.63;;;-3.80;99.90;;;;;;5099185;28;20496;-76
2022/01/29 00:27:57;;;;;;;29.23;17.03;;;-3.90;99.90;;;;;;5099393;28;20248;-74
2022/01/29 00:30:30;;;;;;;28.17;17.73;;;-3.10;99.90;;;;;;5098937;28;20162;-76
2022/01/29 00:32:56;;;;;;;27.90;16.40;;;-5.20;99.90;;;;;;5099692;28;21065;-77
2022/01/29 00:35:22;;;;;;;29.87;18.97;;;-3.90;99.90;;;;;;5099089;28;20422;-75
2022/01/29 00:37:47;;;;;;;34.13;18.30;;;-5.70;99.90;;;;;;5099090;28;20175;-73
2022/01/29 00:40:14;;;;;;;27.53;19.63;;;-5.30;99.90;;;;;;5098965;28;20200;-74
2022/01/29 00:42:40;;;;;;;31.03;18.43;;;-5.30;99.90;;;;;;5099153;28;20603;-72
2022/01/29 00:45:07;;;;;;;27.83;19.00;;;-5.20;99.90;;;;;;5098500;28;20539;-75
2022/01/29 00:47:33;;;;;;;29.30;16.80;;;-5.10;99.90;;;;;;5097911;28;20542;-75
2022/01/29 00:49:59;;;;;;;33.47;19.33;;;-5.30;99.90;;;;;;5097809;28;20405;-72
2022/01/29 00:52:25;;;;;;;34.17;19.47;;;-4.90;99.90;;;;;;5098833;28;20497;-71
2022/01/29 00:54:51;;;;;;;37.27;21.40;;;-5.40;99.90;;;;;;5098765;28;20434;-73
2022/01/29 00:57:17;;;;;;;31.70;20.83;;;-5.30;99.90;;;;;;5098769;28;20232;-71
2022/01/29 00:59:43;;;;;;;34.47;19.47;;;-5.00;99.90;;;;;;5098371;28;20406;-73
2022/01/29 01:02:09;;;;;;;40.67;20.50;;;-4.70;99.90;;;;;;5097589;28;20507;-74
2022/01/29 01:04:38;;;;;;;34.87;18.50;;;-4.80;99.90;;;;;;5097412;28;20224;-72
2022/01/29 01:07:08;;;;;;;39.77;20.57;;;-4.60;99.90;;;;;;5098681;28;20408;-77
2022/01/29 01:09:34;;;;;;;36.70;21.53;;;-4.90;99.90;;;;;;5098559;28;20543;-72
2022/01/29 01:12:00;;;;;;;37.00;21.00;;;-4.60;99.90;;;;;;5098619;28;20402;-71
2022/01/29 01:14:25;;;;;;;34.10;19.83;;;-4.50;99.90;;;;;;5098198;28;20861;-76
2022/01/29 01:16:51;;;;;;;32.17;19.07;;;-4.50;99.90;;;;;;5095935;28;20177;-71
2022/01/29 01:19:17;;;;;;;37.97;20.20;;;-4.70;99.90;;;;;;5097496;28;20176;-71
2022/01/29 01:21:42;;;;;;;31.50;19.83;;;-4.60;99.90;;;;;;5098093;28;20648;-72
2022/01/29 01:24:08;;;;;;;35.50;19.77;;;-4.60;99.90;;;;;;5098401;28;20192;-71
2022/01/29 01:26:34;;;;;;;42.30;21.43;;;-4.50;99.90;;;;;;5098076;28;20240;-72
2022/01/29 01:29:00;;;;;;;39.47;22.63;;;-4.60;99.90;;;;;;5097956;28;20631;-72
2022/01/29 01:31:25;;;;;;;38.83;23.70;;;-4.70;99.90;;;;;;5098011;28;20220;-75
2022/01/29 01:33:51;;;;;;;33.63;21.57;;;-4.60;99.90;;;;;;5096901;28;20193;-72
2022/01/29 01:36:21;;;;;;;33.60;19.40;;;-4.50;99.90;;;;;;5096965;28;20169;-76
2022/01/29 01:38:52;;;;;;;35.03;21.73;;;-4.20;99.90;;;;;;5096976;28;20170;-72
2022/01/29 01:41:23;;;;;;;33.47;20.00;;;-4.40;99.90;;;;;;5097836;28;20410;-77
2022/01/29 01:43:49;;;;;;;41.77;20.13;;;-4.20;99.90;;;;;;5097469;28;20414;-72
2022/01/29 01:46:15;;;;;;;28.20;18.47;;;-4.20;99.90;;;;;;5097718;28;20448;-75
2022/01/29 01:48:41;;;;;;;31.67;19.20;;;-4.30;99.90;;;;;;5097797;28;20565;-75
2022/01/29 01:51:07;;;;;;;42.53;21.43;;;-4.30;99.90;;;;;;5097737;28;20414;-77
2022/01/29 01:53:34;;;;;;;33.83;20.07;;;-4.50;99.90;;;;;;5097882;28;20170;-71
2022/01/29 01:56:00;;;;;;;30.43;18.47;;;-4.30;99.90;;;;;;5097523;28;20401;-73
2022/01/29 01:58:25;;;;;;;30.93;19.43;;;-4.20;99.90;;;;;;5097524;28;20869;-73
2022/01/29 02:00:51;;;;;;;28.57;17.97;;;-4.40;99.90;;;;;;5096155;28;20485;-72
2022/01/29 02:03:17;;;;;;;28.33;17.53;;;-5.20;99.90;;;;;;5097616;28;20634;-76
2022/01/29 02:05:45;;;;;;;37.87;20.50;;;-5.20;99.90;;;;;;5097217;28;20536;-75
2022/01/29 02:08:12;;;;;;;27.97;18.30;;;-5.70;99.90;;;;;;5097456;28;20177;-75
2022/01/29 02:10:38;;;;;;;28.40;18.90;;;-5.70;99.90;;;;;;5097456;28;20401;-72
2022/01/29 02:13:05;;;;;;;31.33;17.50;;;-5.40;99.90;;;;;;5096937;28;20490;-76
2022/01/29 02:15:31;;;;;;;33.90;20.43;;;-5.30;99.90;;;;;;5097389;28;20170;-74
2022/01/29 02:17:58;;;;;;;34.10;17.33;;;-4.90;99.90;;;;;;5097201;28;20185;-77
2022/01/29 02:20:27;;;;;;;36.80;20.23;;;-5.10;99.90;;;;;;5097132;28;20429;-76
2022/01/29 02:22:53;;;;;;;28.87;18.97;;;-5.10;99.90;;;;;;5097036;28;20420;-72
2022/01/29 02:25:34;;;;;;;27.43;18.23;;;-5.00;99.90;;;;;;5096806;28;20473;-74
2022/01/29 02:28:11;;;;;;;28.53;18.67;;;-5.40;99.90;;;;;;5096527;28;20181;-73
2022/01/29 02:30:39;;;;;;;26.70;18.73;;;-5.40;99.90;;;;;;5097055;28;20872;-73
2022/01/29 02:33:10;;;;;;;24.20;18.07;;;-5.50;99.90;;;;;;5096811;28;20504;-75
2022/01/29 02:35:41;;;;;;;28.60;17.77;;;-5.60;99.90;;;;;;5096834;28;20731;-75
2022/01/29 02:38:08;;;;;;;24.80;15.83;;;-5.90;99.90;;;;;;5095738;28;20499;-77
2022/01/29 02:40:39;;;;;;;20.43;13.30;;;-6.00;99.90;;;;;;5096777;28;20437;-77
2022/01/29 02:43:20;;;;;;;27.17;17.47;;;-5.80;99.90;;;;;;5096647;28;20453;-73
2022/01/29 02:45:47;;;;;;;21.97;15.40;;;-5.70;99.90;;;;;;5096768;28;20820;-73
2022/01/29 02:48:13;;;;;;;31.60;18.10;;;-5.50;99.90;;;;;;5095539;28;20399;-76
2022/01/29 02:50:40;;;;;;;24.77;17.00;;;-5.60;99.90;;;;;;5096733;28;20391;-74
2022/01/29 02:53:07;;;;;;;19.27;15.40;;;-5.30;99.90;;;;;;5096540;28;20410;-75
2022/01/29 02:55:33;;;;;;;23.50;16.10;;;-5.40;99.90;;;;;;5096342;28;20834;-74
2022/01/29 02:58:00;;;;;;;24.77;15.77;;;-5.80;99.90;;;;;;5096457;28;20719;-73
2022/01/29 03:00:26;;;;;;;18.47;13.00;;;-5.10;99.90;;;;;;5096304;28;20527;-73
2022/01/29 03:02:52;;;;;;;24.27;15.90;;;-5.00;99.90;;;;;;5096135;28;20510;-73
2022/01/29 03:05:18;;;;;;;20.10;14.20;;;-4.80;99.90;;;;;;5096281;28;20465;-75
2022/01/29 03:07:45;;;;;;;22.53;15.90;;;-4.90;99.90;;;;;;5096378;28;20434;-76
2022/01/29 03:10:11;;;;;;;15.67;12.73;;;-4.70;99.90;;;;;;5096039;28;20425;-72
2022/01/29 03:12:40;;;;;;;15.63;11.30;;;-4.80;99.90;;;;;;5096464;28;20423;-75
2022/01/29 03:15:07;;;;;;;15.07;11.37;;;-4.60;99.90;;;;;;5096153;28;20178;-73
2022/01/29 03:17:32;;;;;;;19.30;12.10;;;-4.70;99.90;;;;;;5096054;28;20413;-74
2022/01/29 03:19:58;;;;;;;19.77;12.43;;;-4.00;99.90;;;;;;5096392;28;20787;-74
2022/01/29 03:22:24;;;;;;;19.03;12.53;;;-4.40;99.90;;;;;;5095950;28;20229;-72
2022/01/29 03:24:50;;;;;;;17.50;12.27;;;-4.20;99.90;;;;;;5095733;28;20218;-76
2022/01/29 03:27:15;;;;;;;16.00;11.53;;;-4.20;99.90;;;;;;5096103;28;20171;-73
2022/01/29 03:29:41;;;;;;;15.20;12.07;;;-4.40;99.90;;;;;;5095981;28;20218;-72
2022/01/29 03:32:07;;;;;;;16.93;12.87;;;-4.10;99.90;;;;;;5094927;28;20566;-73
2022/01/29 03:34:33;;;;;;;15.77;12.37;;;-4.70;99.90;;;;;;5095972;28;20584;-72
2022/01/29 03:36:59;;;;;;;19.53;13.27;;;-4.70;99.90;;;;;;5095989;28;20403;-76
2022/01/29 03:39:26;;;;;;;18.97;13.03;;;-4.80;99.90;;;;;;5095037;28;20162;-74
2022/01/29 03:41:53;;;;;;;19.03;12.97;;;-5.30;99.90;;;;;;5095712;28;20197;-78
2022/01/29 03:44:20;;;;;;;13.13;11.27;;;-5.40;99.90;;;;;;5095875;28;20399;-76
2022/01/29 03:46:46;;;;;;;17.00;11.57;;;-4.60;99.90;;;;;;5095708;28;20456;-77
2022/01/29 03:49:12;;;;;;;18.20;13.53;;;-5.30;99.90;;;;;;5095676;28;20407;-76
2022/01/29 03:51:38;;;;;;;16.20;11.57;;;-5.10;99.90;;;;;;5094783;28;20264;-73
2022/01/29 03:54:04;;;;;;;16.43;11.00;;;-5.60;99.90;;;;;;5095452;28;20499;-77
2022/01/29 03:56:29;;;;;;;14.60;10.47;;;-5.50;99.90;;;;;;5095775;28;20173;-77
2022/01/29 03:58:55;;;;;;;16.63;12.23;;;-5.20;99.90;;;;;;5094483;28;20174;-77
2022/01/29 04:01:21;;;;;;;16.23;12.13;;;-4.90;99.90;;;;;;5095632;28;20197;-78
2022/01/29 04:03:47;;;;;;;14.93;11.30;;;-5.30;99.90;;;;;;5095790;28;20209;-73
2022/01/29 04:06:12;;;;;;;15.57;11.67;;;-5.40;99.90;;;;;;5095607;28;20605;-76
2022/01/29 04:08:43;;;;;;;14.07;10.17;;;-4.10;99.90;;;;;;5095338;28;20166;-74
2022/01/29 04:11:12;;;;;;;17.27;13.13;;;-5.00;99.90;;;;;;5095707;28;20249;-74
2022/01/29 04:13:45;;;;;;;12.27;10.07;;;-5.40;99.90;;;;;;5095418;28;20888;-73
2022/01/29 04:16:12;;;;;;;11.57;9.50;;;-5.70;99.90;;;;;;5094513;28;20421;-75
2022/01/29 04:18:38;;;;;;;12.40;10.27;;;-5.90;99.90;;;;;;5094391;28;20418;-75
2022/01/29 04:21:04;;;;;;;14.40;10.57;;;-5.20;99.90;;;;;;5095515;28;20460;-75
2022/01/29 04:23:31;;;;;;;12.87;10.80;;;-4.70;99.90;;;;;;5094112;28;20565;-73
2022/01/29 04:25:56;;;;;;;11.27;9.50;;;-4.90;99.90;;;;;;5094181;28;20450;-73
2022/01/29 04:28:26;;;;;;;14.50;9.27;;;-4.90;99.90;;;;;;5095561;28;20403;-73
2022/01/29 04:30:58;;;;;;;14.90;11.20;;;-4.90;99.90;;;;;;5095284;28;20257;-76
2022/01/29 04:35:52;;;;;;;11.03;9.03;;;-4.60;99.90;;;;;;5095036;28;20706;-72
2022/01/29 04:38:18;;;;;;;11.97;10.33;;;-4.60;99.90;;;;;;5094382;28;20415;-71
2022/01/29 04:40:44;;;;;;;13.43;10.33;;;-4.60;99.90;;;;;;5095307;28;20606;-73
2022/01/29 04:43:10;;;;;;;13.13;10.37;;;-5.00;99.90;;;;;;5095308;28;20500;-71
2022/01/29 04:45:35;;;;;;;13.87;9.87;;;-6.30;99.90;;;;;;5095201;28;20230;-72
2022/01/29 04:48:01;;;;;;;10.77;9.67;;;-4.10;99.90;;;;;;5095309;28;20189;-73
2022/01/29 04:50:27;;;;;;;13.60;10.33;;;-5.70;99.90;;;;;;5094984;28;20170;-71
2022/01/29 04:52:54;;;;;;;12.40;10.70;;;-5.00;99.90;;;;;;5098459;28;20405;-72
2022/01/29 04:55:19;;;;;;;14.70;11.00;;;-5.70;99.90;;;;;;5097692;28;20494;-72
2022/01/29 04:57:45;;;;;;;14.73;11.80;;;-5.80;99.90;;;;;;5098816;28;20415;-72
2022/01/29 05:00:19;;;;;;;13.57;9.37;;;-6.00;99.90;;;;;;5098644;28;20251;-72
2022/01/29 05:02:49;;;;;;;12.93;11.13;;;-5.80;99.90;;;;;;5098548;28;20193;-71
2022/01/29 05:05:15;;;;;;;16.40;12.37;;;-5.60;99.90;;;;;;5098035;28;20454;-72
2022/01/29 05:07:41;;;;;;;14.27;11.97;;;-5.10;99.90;;;;;;5097137;28;20399;-72
2022/01/29 05:10:07;;;;;;;13.60;9.87;;;-5.10;99.90;;;;;;5098285;28;20463;-76
2022/01/29 05:28:32;;;;;;;14.13;11.23;;;-5.10;99.90;;;;;;5098230;28;20255;-72
2022/01/29 05:30:57;;;;;;;13.67;10.83;;;-4.40;99.90;;;;;;5098089;28;20208;-77
2022/01/29 05:33:23;;;;;;;10.97;9.77;;;-4.80;99.90;;;;;;5097181;28;20181;-75
2022/01/29 05:35:49;;;;;;;14.23;11.60;;;-4.90;99.90;;;;;;5097777;28;20181;-75
2022/01/29 05:38:15;;;;;;;13.13;10.03;;;-4.80;99.90;;;;;;5098071;28;20166;-76
2022/01/29 05:40:40;;;;;;;15.83;11.10;;;-4.90;99.90;;;;;;5097943;28;20173;-78
2022/01/29 05:43:06;;;;;;;11.77;10.43;;;-4.80;99.90;;;;;;5097953;28;20171;-77
2022/01/29 05:45:32;;;;;;;14.60;12.17;;;-5.40;99.90;;;;;;5097800;28;20232;-73
2022/01/29 05:47:57;;;;;;;12.60;9.53;;;-4.80;99.90;;;;;;5097950;28;20202;-77
2022/01/29 05:50:23;;;;;;;17.50;11.27;;;-5.10;99.90;;;;;;5096324;28;20566;-73
2022/01/29 05:52:49;;;;;;;13.13;11.43;;;-4.70;99.90;;;;;;5095983;28;20253;-77
2022/01/29 05:55:15;;;;;;;15.17;12.23;;;-4.90;99.90;;;;;;5097732;28;20170;-74
2022/01/29 05:57:40;;;;;;;13.93;10.63;;;-4.00;99.90;;;;;;5096144;28;20197;-75
2022/01/29 06:00:07;;;;;;;13.07;10.43;;;-4.40;99.90;;;;;;5097047;28;20182;-77
2022/01/29 06:02:32;;;;;;;14.33;12.33;;;-4.90;99.90;;;;;;5096659;28;20201;-76
2022/01/29 06:04:58;;;;;;;13.20;10.57;;;-5.00;99.90;;;;;;5097074;28;20202;-78
2022/01/29 06:07:24;;;;;;;13.80;11.20;;;-5.40;99.90;;;;;;5096463;28;20170;-77
2022/01/29 06:09:50;;;;;;;12.07;10.63;;;-5.20;99.90;;;;;;5096698;28;20167;-76
2022/01/29 06:12:15;;;;;;;14.23;11.97;;;-5.20;99.90;;;;;;5097286;28;20216;-76
2022/01/29 06:14:41;;;;;;;13.37;11.63;;;-4.90;99.90;;;;;;5096919;28;20167;-76
2022/01/29 06:17:07;;;;;;;14.20;11.17;;;-4.70;99.90;;;;;;5097173;28;20167;-74
2022/01/29 06:19:33;;;;;;;12.87;10.93;;;-5.50;99.90;;;;;;5096592;28;20262;-80
2022/01/29 06:21:59;;;;;;;15.63;12.70;;;-5.10;99.90;;;;;;5097140;28;20506;-77
2022/01/29 06:24:24;;;;;;;12.50;11.10;;;-5.40;99.90;;;;;;5097212;28;20186;-74
2022/01/29 06:26:50;;;;;;;15.07;12.17;;;-5.30;99.90;;;;;;5096900;28;20198;-77
2022/01/29 06:29:16;;;;;;;13.57;11.43;;;-5.00;99.90;;;;;;5097104;28;20171;-76
2022/01/29 06:31:42;;;;;;;15.10;12.30;;;-5.40;99.90;;;;;;5096866;28;20261;-76
2022/01/29 06:34:07;;;;;;;42.17;12.87;;;-4.70;99.90;;;;;;5096654;28;20171;-78
2022/01/29 06:36:33;;;;;;;14.27;12.03;;;-4.40;99.90;;;;;;5096869;28;20458;-77
2022/01/29 06:38:59;;;;;;;15.20;12.00;;;-4.60;99.90;;;;;;5095764;28;20171;-78
2022/01/29 06:41:24;;;;;;;14.27;10.83;;;-4.90;99.90;;;;;;5095659;28;20210;-76
2022/01/29 06:43:50;;;;;;;16.13;12.80;;;-4.80;99.90;;;;;;5096823;28;20213;-75
2022/01/29 06:46:17;;;;;;;13.87;11.60;;;-5.10;99.90;;;;;;5094518;28;20198;-72
2022/01/29 06:48:42;;;;;;;16.47;11.60;;;-5.10;99.90;;;;;;5096386;28;20171;-75
2022/01/29 06:51:08;;;;;;;14.67;11.93;;;-4.40;99.90;;;;;;5096149;28;20308;-78
2022/01/29 06:53:34;;;;;;;13.40;11.53;;;-4.90;99.90;;;;;;5096038;28;20171;-77
2022/01/29 06:55:59;;;;;;;17.87;11.40;;;-4.70;99.90;;;;;;5095701;28;20173;-75
2022/01/29 06:58:25;;;;;;;13.17;11.07;;;-4.80;99.90;;;;;;5096393;28;20174;-78
2022/01/29 07:00:51;;;;;;;14.33;11.57;;;-4.90;99.90;;;;;;5094019;28;20184;-76
2022/01/29 07:03:17;;;;;;;14.47;12.13;;;-4.70;99.90;;;;;;5096345;28;20189;-76
2022/01/29 07:05:42;;;;;;;15.53;12.30;;;-4.90;99.90;;;;;;5096282;28;20294;-77
2022/01/29 07:08:08;;;;;;;14.60;10.97;;;-4.90;99.90;;;;;;5096305;28;20606;-73
2022/01/29 07:10:34;;;;;;;17.30;13.27;;;-4.40;99.90;;;;;;5096229;28;20220;-75
2022/01/29 07:13:00;;;;;;;14.37;10.33;;;-5.00;99.90;;;;;;5096163;28;20170;-73
2022/01/29 07:15:25;;;;;;;13.73;12.10;;;-4.90;99.90;;;;;;5096086;28;20247;-73
2022/01/29 07:17:51;;;;;;;14.93;11.70;;;-4.60;99.90;;;;;;5096555;28;20175;-76
2022/01/29 07:20:17;;;;;;;13.43;11.90;;;-4.90;99.90;;;;;;5096348;28;20174;-75
2022/01/29 07:22:42;;;;;;;12.87;11.47;;;-4.80;99.90;;;;;;5095769;28;20186;-78
2022/01/29 07:25:08;;;;;;;13.93;12.53;;;-4.70;99.90;;;;;;5095485;28;20192;-77
2022/01/29 07:27:34;;;;;;;15.00;12.50;;;-5.80;99.90;;;;;;5096036;28;20170;-74
2022/01/29 07:30:00;;;;;;;13.73;12.23;;;-5.00;99.90;;;;;;5095917;28;20246;-71
2022/01/29 07:32:25;;;;;;;16.73;11.93;;;-5.10;99.90;;;;;;5095977;28;20179;-72
2022/01/29 07:34:51;;;;;;;19.13;13.43;;;-4.90;99.90;;;;;;5095989;28;20231;-70
2022/01/29 07:37:17;;;;;;;12.53;11.20;;;-4.80;99.90;;;;;;5096058;28;20245;-73
2022/01/29 07:39:43;;;;;;;13.87;11.63;;;-5.10;99.90;;;;;;5094696;28;20484;-74
2022/01/29 07:42:09;;;;;;;13.40;11.73;;;-5.10;99.90;;;;;;5096054;28;20171;-71
2022/01/29 07:44:35;;;;;;;13.50;11.23;;;-4.30;99.90;;;;;;5094358;28;20245;-71
2022/01/29 07:47:00;;;;;;;15.80;10.70;;;-5.30;99.90;;;;;;5095840;28;20282;-74
2022/01/29 07:49:26;;;;;;;17.17;12.50;;;-5.40;99.90;;;;;;5095531;28;20201;-74
2022/01/29 07:51:52;;;;;;;12.00;10.43;;;-5.80;99.90;;;;;;5095835;28;20182;-75
2022/01/29 07:54:19;;;;;;;11.20;9.80;;;-4.80;99.90;;;;;;5095612;28;20182;-78
2022/01/29 07:56:45;;;;;;;11.07;9.97;;;-4.20;99.90;;;;;;5095667;28;20228;-71
2022/01/29 07:59:10;;;;;;;12.43;11.07;;;-4.80;99.90;;;;;;5095551;28;20174;-77
2022/01/29 08:01:36;;;;;;;12.33;10.23;;;-4.60;99.90;;;;;;5094558;28;20587;-73
2022/01/29 08:04:02;;;;;;;10.87;9.67;;;-4.80;99.90;;;;;;5095578;28;20198;-72
2022/01/29 08:06:29;;;;;;;15.77;12.20;;;-4.90;99.90;;;;;;5095201;28;20200;-74
2022/01/29 08:08:55;;;;;;;9.83;8.70;;;-5.50;99.90;;;;;;5095643;28;20254;-74
2022/01/29 08:11:21;;;;;;;9.63;8.63;;;-5.10;99.90;;;;;;5095565;28;20171;-72
2022/01/29 08:13:47;;;;;;;8.00;7.23;;;-5.00;99.90;;;;;;5095301;28;20167;-74
2022/01/29 08:16:14;;;;;;;8.70;7.90;;;-5.10;99.90;;;;;;5095596;28;20177;-74
2022/01/29 08:18:42;;;;;;;7.80;7.00;;;-5.20;99.90;;;;;;5095508;28;20192;-77
2022/01/29 08:21:08;;;;;;;12.40;8.03;;;-4.80;99.90;;;;;;5095473;28;20171;-78
2022/01/29 08:23:34;;;;;;;7.10;6.43;;;-5.00;99.90;;;;;;5095262;28;20181;-79
2022/01/29 08:26:00;;;;;;;8.13;7.43;;;-5.90;99.90;;;;;;5095510;28;20195;-75
2022/01/29 08:28:25;;;;;;;7.90;6.80;;;-5.40;99.90;;;;;;5098894;28;20261;-75
2022/01/29 08:30:51;;;;;;;8.60;7.10;;;-6.00;99.90;;;;;;5098909;28;20170;-73
2022/01/29 08:33:18;;;;;;;8.30;7.60;;;-5.80;99.90;;;;;;5099140;28;20247;-72
2022/01/29 08:35:46;;;;;;;7.57;6.87;;;-5.20;99.90;;;;;;5098003;28;20174;-78
2022/01/29 08:38:12;;;;;;;7.97;7.17;;;-5.60;99.90;;;;;;5099196;28;20613;-75
2022/01/29 08:40:38;;;;;;;5.03;4.63;;;-5.60;99.90;;;;;;5098991;28;20162;-75
2022/01/29 08:43:03;;;;;;;6.67;6.07;;;-5.80;99.90;;;;;;5098868;28;20205;-78
2022/01/29 08:45:29;;;;;;;5.07;4.63;;;-5.90;99.90;;;;;;5095260;28;20186;-78
2022/01/29 08:47:55;;;;;;;5.87;5.37;;;-5.30;99.90;;;;;;5064683;28;20173;-72
2022/01/29 08:50:21;;;;;;;7.73;5.50;;;-5.90;99.90;;;;;;5058536;28;20583;-80
2022/01/29 08:52:47;;;;;;;5.47;4.97;;;-5.30;99.90;;;;;;5058337;28;20256;-77
2022/01/29 08:55:13;;;;;;;5.77;5.27;;;-4.00;99.90;;;;;;5058493;28;20233;-73
2022/01/29 08:57:39;;;;;;;6.90;6.30;;;-5.60;99.90;;;;;;5057756;28;20594;-76
2022/01/29 09:00:07;;;;;;;6.97;6.17;;;-5.60;99.90;;;;;;5058346;28;20172;-74
2022/01/29 09:02:33;;;;;;;5.30;4.90;;;-5.90;99.90;;;;;;5058176;28;20237;-73
2022/01/29 09:05:00;;;;;;;6.13;5.63;;;-5.60;99.90;;;;;;5058118;28;20180;-73
2022/01/29 09:07:27;;;;;;;6.20;5.63;;;-4.40;99.90;;;;;;5057846;28;20176;-73
2022/01/29 09:09:54;;;;;;;6.50;6.00;;;-6.00;99.90;;;;;;5058112;28;20176;-77
2022/01/29 09:12:21;;;;;;;5.80;5.40;;;-5.10;99.90;;;;;;5056534;28;20200;-76
2022/01/29 09:14:47;;;;;;;7.17;6.00;;;-5.80;99.90;;;;;;5057015;28;20172;-73
2022/01/29 09:17:15;;;;;;;5.20;4.77;;;-5.30;99.90;;;;;;5058088;28;20180;-76
2022/01/29 09:19:41;;;;;;;6.93;6.23;;;-5.90;99.90;;;;;;5058084;28;20172;-73
2022/01/29 09:22:06;;;;;;;6.00;5.50;;;-5.30;99.90;;;;;;5058158;28;20669;-77
2022/01/29 09:24:32;;;;;;;6.53;5.93;;;-5.70;99.90;;;;;;5058126;28;20172;-73
2022/01/29 09:26:59;;;;;;;7.40;5.93;;;-5.50;99.90;;;;;;5056397;28;20231;-74
2022/01/29 09:29:25;;;;;;;6.83;6.13;;;-4.70;99.90;;;;;;5057901;28;20218;-76
2022/01/29 09:31:51;;;;;;;6.10;5.60;;;-5.20;99.90;;;;;;5057633;28;20522;-80
2022/01/29 09:34:16;;;;;;;7.10;6.03;;;-4.40;99.90;;;;;;5057882;28;20168;-74
2022/01/29 09:36:42;;;;;;;7.83;6.13;;;-5.10;99.90;;;;;;5057845;28;20280;-77
2022/01/29 09:39:08;;;;;;;6.73;6.17;;;-4.90;99.90;;;;;;5056550;28;20214;-81
2022/01/29 09:41:41;;;;;;;7.37;6.67;;;-5.70;99.90;;;;;;5057451;28;20172;-78
2022/01/29 09:44:07;;;;;;;8.80;7.10;;;-6.40;99.90;;;;;;5056559;28;20180;-79
2022/01/29 09:46:34;;;;;;;7.47;6.77;;;-6.20;99.90;;;;;;5057494;28;20251;-79
2022/01/29 09:48:59;;;;;;;8.40;6.70;;;-2.90;99.90;;;;;;5057407;28;20246;-78
2022/01/29 09:51:27;;;;;;;7.97;5.57;;;-4.40;99.90;;;;;;5057435;28;20319;-79
2022/01/29 09:53:52;;;;;;;7.30;6.60;;;-5.20;99.90;;;;;;5057458;28;20181;-75
2022/01/29 09:56:18;;;;;;;7.30;6.60;;;-5.60;99.90;;;;;;5057045;28;20174;-76
2022/01/29 09:58:44;;;;;;;7.17;6.17;;;-5.20;99.90;;;;;;5057411;28;20227;-82
2022/01/29 10:01:10;;;;;;;5.80;5.33;;;-5.80;99.90;;;;;;5057039;28;20272;-82
2022/01/29 10:03:36;;;;;;;6.60;5.80;;;-5.70;99.90;;;;;;5057284;28;20550;-83
2022/01/29 10:06:03;;;;;;;5.50;5.00;;;-5.60;99.90;;;;;;5057119;28;20217;-78
2022/01/29 10:08:41;;;;;;;6.33;5.67;;;-5.60;99.90;;;;;;5056224;28;20197;-77
2022/01/29 10:11:20;;;;;;;6.10;5.50;;;-5.70;99.90;;;;;;5056805;28;20160;-76
2022/01/29 10:13:46;;;;;;;10.40;5.67;;;-4.60;99.90;;;;;;5057130;28;20172;-73
2022/01/29 10:16:21;;;;;;;6.40;4.93;;;-5.70;99.90;;;;;;5056729;28;20182;-78
2022/01/29 10:19:02;;;;;;;5.30;4.83;;;-5.10;99.90;;;;;;5057119;28;20258;-73
2022/01/29 10:21:30;;;;;;;4.67;3.90;;;-5.70;99.90;;;;;;5056853;28;20199;-75
2022/01/29 10:24:06;;;;;;;6.33;5.07;;;-6.10;99.90;;;;;;5056546;28;20202;-79
2022/01/29 10:26:48;;;;;;;6.93;5.07;;;-6.10;99.90;;;;;;5056796;28;20196;-79
2022/01/29 10:29:26;;;;;;;10.47;5.33;;;-5.70;99.90;;;;;;5055733;28;20574;-78
2022/01/29 10:31:54;;;;;;;5.13;4.63;;;-5.60;99.90;;;;;;5056897;28;20265;-78
2022/01/29 10:34:25;;;;;;;4.60;4.00;;;-6.20;99.90;;;;;;5056768;28;20172;-79
2022/01/29 10:37:15;;;;;;;4.50;4.10;;;-5.70;99.90;;;;;;5056635;28;20607;-81
2022/01/29 10:39:50;;;;;;;8.37;5.33;;;-5.20;99.90;;;;;;5056403;28;20201;-72
2022/01/29 10:42:22;;;;;;;7.53;4.27;;;-5.20;99.90;;;;;;5056348;28;20565;-76
2022/01/29 10:44:56;;;;;;;5.73;5.23;;;-5.60;99.90;;;;;;5056549;28;20174;-76
2022/01/29 10:47:22;;;;;;;5.47;4.97;;;-4.80;99.90;;;;;;5056435;28;20602;-75
2022/01/29 10:49:52;;;;;;;7.60;5.13;;;-4.80;99.90;;;;;;5056147;28;20566;-75
2022/01/29 10:52:24;;;;;;;5.67;4.20;;;-6.60;99.90;;;;;;5056141;28;20214;-77
2022/01/29 10:54:59;;;;;;;5.23;4.37;;;-6.70;99.90;;;;;;5056113;28;20262;-77
2022/01/29 10:57:38;;;;;;;4.77;4.33;;;-4.90;99.90;;;;;;5056252;28;20169;-75
2022/01/29 11:00:09;;;;;;;9.00;4.50;;;-6.00;99.90;;;;;;5056085;28;20302;-73
2022/01/29 11:02:35;;;;;;;4.93;4.50;;;-6.70;99.90;;;;;;5055983;28;20255;-75
2022/01/29 11:05:03;;;;;;;5.77;4.43;;;-6.00;99.90;;;;;;5055947;28;20493;-78
2022/01/29 11:07:30;;;;;;;5.73;4.90;;;-6.40;99.90;;;;;;5055841;28;20172;-73
2022/01/29 11:09:59;;;;;;;5.80;4.90;;;-6.00;99.90;;;;;;5055012;28;20478;-76
2022/01/29 11:12:27;;;;;;;4.70;4.30;;;-6.80;99.90;;;;;;5055854;28;20595;-73
2022/01/29 11:14:55;;;;;;;4.83;4.43;;;-6.70;99.90;;;;;;5054948;28;20477;-72
2022/01/29 11:17:23;;;;;;;4.30;3.90;;;-6.80;99.90;;;;;;5055945;28;20167;-74
2022/01/29 11:19:49;;;;;;;4.27;3.87;;;-7.20;99.90;;;;;;5055971;28;20173;-74
2022/01/29 11:22:20;;;;;;;5.97;5.37;;;-7.10;99.90;;;;;;5055589;28;20187;-75
2022/01/29 11:24:48;;;;;;;5.17;4.67;;;-6.50;99.90;;;;;;5055642;28;20162;-73
2022/01/29 11:27:24;;;;;;;6.17;4.90;;;-6.40;99.90;;;;;;5055664;28;20281;-76
2022/01/29 11:30:10;;;;;;;4.97;4.47;;;-5.80;99.90;;;;;;5055515;28;20228;-73
2022/01/29 11:32:42;;;;;;;5.60;4.23;;;-6.40;99.90;;;;;;5055663;28;20175;-77
2022/01/29 11:35:22;;;;;;;5.00;4.47;;;-6.00;99.90;;;;;;5055564;28;20225;-74
2022/01/29 11:37:52;;;;;;;6.47;4.43;;;-6.60;99.90;;;;;;5054281;28;20229;-76
2022/01/29 11:40:34;;;;;;;6.97;3.93;;;-6.20;99.90;;;;;;5037872;28;20171;-73
2022/01/29 11:43:13;;;;;;;7.50;4.80;;;-6.60;99.90;;;;;;5055616;28;20195;-72
2022/01/29 11:46:25;;;;;;;4.33;3.97;;;-6.30;99.90;;;;;;5055591;28;20187;-71
2022/01/29 11:48:56;;;;;;;7.03;3.77;;;-6.30;99.90;;;;;;5049972;28;20182;-72
2022/01/29 11:51:43;;;;;;;5.63;3.70;;;-6.20;99.90;;;;;;5055256;28;20468;-74
2022/01/29 11:54:12;;;;;;;4.27;3.60;;;-5.00;99.90;;;;;;5055258;28;20556;-75
2022/01/29 11:56:40;;;;;;;6.20;3.77;;;-6.30;99.90;;;;;;5055727;28;20499;-74
2022/01/29 11:59:20;;;;;;;6.30;3.73;;;-6.70;99.90;;;;;;5055399;28;20168;-78
2022/01/29 12:01:49;;;;;;;7.30;4.10;;;-6.90;99.90;;;;;;5057094;28;20192;-74
2022/01/29 12:04:19;;;;;;;12.27;4.00;;;-5.00;99.90;;;;;;5058230;28;20179;-72
2022/01/29 12:07:06;;;;;;;4.43;3.53;;;-5.70;99.90;;;;;;5059137;28;20256;-73
2022/01/29 12:09:48;;;;;;;7.87;4.73;;;-5.50;99.90;;;;;;5059381;28;20219;-72
2022/01/29 12:12:17;;;;;;;4.03;3.30;;;-5.80;99.90;;;;;;5059287;28;20182;-71
2022/01/29 12:14:44;;;;;;;5.23;3.07;;;-5.80;99.90;;;;;;5059176;28;20574;-72
2022/01/29 12:17:10;;;;;;;6.07;3.70;;;-5.20;99.90;;;;;;5059476;28;20170;-72
2022/01/29 12:19:42;;;;;;;7.83;3.40;;;-4.90;99.90;;;;;;5059042;28;20184;-73
2022/01/29 12:22:11;;;;;;;2.73;2.40;;;-6.10;99.90;;;;;;5059002;28;20612;-78
2022/01/29 12:24:39;;;;;;;5.33;3.00;;;-6.10;99.90;;;;;;5059114;28;20173;-73
2022/01/29 12:27:05;;;;;;;7.67;3.23;;;-5.60;99.90;;;;;;5059125;28;20198;-72
2022/01/29 12:29:31;;;;;;;6.30;3.33;;;-5.30;99.90;;;;;;5058982;28;20171;-79
2022/01/29 12:31:57;;;;;;;9.13;2.93;;;-5.10;99.90;;;;;;5058872;28;20186;-71
2022/01/29 12:34:25;;;;;;;5.37;3.43;;;-4.20;99.90;;;;;;5058509;28;20479;-74
2022/01/29 12:36:51;;;;;;;3.80;2.30;;;-4.40;99.90;;;;;;5059086;28;20270;-73
2022/01/29 12:39:24;;;;;;;8.27;2.90;;;-3.80;99.90;;;;;;5058805;28;20617;-75
2022/01/29 12:42:42;;;;;;;5.23;2.60;;;-4.60;99.90;;;;;;5058730;28;20163;-71
2022/01/29 12:44:57;;;;;;;5.00;2.50;;;-4.70;99.90;;;;;;5057721;28;20193;-76
2022/01/29 12:47:31;;;;;;;4.87;2.70;;;-5.30;99.90;;;;;;5058786;28;20381;-79
2022/01/29 12:49:57;;;;;;;7.73;2.97;;;-6.20;99.90;;;;;;5058367;28;20163;-72
2022/01/29 12:52:24;;;;;;;5.27;3.80;;;-6.10;99.90;;;;;;5058373;28;20492;-74
2022/01/29 12:54:58;;;;;;;7.93;2.20;;;-6.30;99.90;;;;;;5058485;28;20255;-72
2022/01/29 12:57:25;;;;;;;3.40;2.50;;;-6.00;99.90;;;;;;5058737;28;20199;-73